Time;durP1;ratioP1;P1;durP2;ratioP2;P2;SDS_P1;SDS_P2;PMS_P1;PMS_P2;Temp;Humidity;BMP_temperature;BMP_pressure;BME280_temperature;BME280_humidity;BME280_pressure;Samples;Min_cycle;Max_cycle;Signal;HPM_P1;HPM_P2
2023/10/11 00:02:59;;;;;;;16.05;8.23;;;16.30;99.90;;;;;;5009737;28;20050;-63
2023/10/11 00:05:33;;;;;;;13.13;8.02;;;16.30;99.90;;;;;;5009099;28;20073;-63
2023/10/11 00:08:04;;;;;;;15.70;8.23;;;16.30;99.90;;;;;;4992406;28;20112;-63
2023/10/11 00:10:31;;;;;;;10.70;6.97;;;16.30;99.90;;;;;;5017903;28;20461;-62
2023/10/11 00:12:58;;;;;;;12.93;7.88;;;16.30;99.90;;;;;;5029132;28;20057;-63
2023/10/11 00:15:28;;;;;;;14.80;9.63;;;16.20;99.90;;;;;;5031848;28;20075;-62
2023/10/11 00:17:58;;;;;;;13.68;8.18;;;16.30;99.90;;;;;;5033204;28;20053;-63
2023/10/11 00:23:06;;;;;;;15.02;9.27;;;16.20;99.90;;;;;;5013120;28;20049;-65
2023/10/11 00:25:32;;;;;;;13.32;9.13;;;16.20;99.90;;;;;;5013189;28;20112;-63
2023/10/11 00:27:58;;;;;;;14.63;9.43;;;16.20;99.90;;;;;;5013685;28;20052;-63
2023/10/11 00:30:25;;;;;;;15.23;9.98;;;16.30;99.90;;;;;;5020719;28;20046;-63
2023/10/11 00:32:52;;;;;;;16.80;10.20;;;16.20;99.90;;;;;;5032977;28;20049;-61
2023/10/11 00:35:19;;;;;;;17.60;10.02;;;16.20;99.90;;;;;;5032409;28;20060;-64
2023/10/11 00:37:51;;;;;;;15.65;9.70;;;16.30;99.90;;;;;;5033069;28;20053;-63
2023/10/11 00:40:28;;;;;;;18.02;10.10;;;16.30;99.90;;;;;;5025663;28;20053;-63
2023/10/11 00:42:54;;;;;;;19.02;10.70;;;16.30;99.90;;;;;;5012693;28;20061;-62
2023/10/11 00:45:22;;;;;;;17.73;10.82;;;16.20;99.90;;;;;;5012456;28;20054;-64
2023/10/11 00:47:53;;;;;;;22.05;10.85;;;16.30;99.90;;;;;;5012920;28;20050;-63
2023/10/11 00:50:21;;;;;;;17.85;11.13;;;16.20;99.90;;;;;;5024078;28;20052;-63
2023/10/11 00:52:48;;;;;;;17.20;12.35;;;16.20;99.90;;;;;;4994923;28;20444;-63
2023/10/11 00:55:20;;;;;;;17.73;10.95;;;16.20;99.90;;;;;;5012507;28;20053;-61
2023/10/11 00:57:48;;;;;;;20.48;11.98;;;16.30;99.90;;;;;;5012864;28;20479;-63
2023/10/11 01:00:21;;;;;;;19.92;11.27;;;16.20;99.90;;;;;;5012647;28;20065;-62
2023/10/11 01:02:51;;;;;;;21.05;11.52;;;16.20;99.90;;;;;;5011793;28;20061;-64
2023/10/11 01:05:20;;;;;;;20.65;11.65;;;16.20;99.90;;;;;;5031797;28;20489;-62
2023/10/11 01:07:50;;;;;;;19.73;12.52;;;16.30;99.90;;;;;;5032109;28;20084;-62
2023/10/11 01:10:18;;;;;;;23.92;13.45;;;16.30;99.90;;;;;;5024965;28;20078;-63
2023/10/11 01:12:44;;;;;;;24.52;12.65;;;16.20;99.90;;;;;;5012462;28;20049;-62
2023/10/11 01:15:11;;;;;;;22.02;12.45;;;16.20;99.90;;;;;;5011635;28;20049;-61
2023/10/11 01:17:38;;;;;;;20.42;12.07;;;16.20;99.90;;;;;;4994884;28;20050;-63
2023/10/11 01:20:19;;;;;;;19.05;13.63;;;16.20;99.90;;;;;;5012191;28;20386;-63
2023/10/11 01:22:45;;;;;;;24.40;12.93;;;16.20;99.90;;;;;;5012709;28;20081;-62
2023/10/11 01:25:18;;;;;;;20.73;12.60;;;16.20;99.90;;;;;;5031123;28;20137;-62
2023/10/11 01:27:45;;;;;;;20.35;13.07;;;16.30;99.90;;;;;;5032101;28;20041;-62
2023/10/11 01:30:12;;;;;;;23.02;12.13;;;16.30;99.90;;;;;;5025445;28;20053;-61
2023/10/11 01:32:41;;;;;;;21.10;13.20;;;16.20;99.90;;;;;;5011682;28;20489;-62
2023/10/11 01:35:12;;;;;;;23.42;13.27;;;16.30;99.90;;;;;;5011546;28;20061;-63
2023/10/11 01:37:44;;;;;;;20.50;12.43;;;16.30;99.90;;;;;;5011941;28;20057;-62
2023/10/11 01:40:20;;;;;;;24.42;13.15;;;16.30;99.90;;;;;;5011631;28;20056;-62
2023/10/11 01:42:49;;;;;;;23.13;13.32;;;16.20;99.90;;;;;;5010814;28;20064;-62
2023/10/11 01:45:19;;;;;;;21.70;12.60;;;16.20;99.90;;;;;;5031223;28;20462;-63
2023/10/11 01:47:46;;;;;;;24.02;13.65;;;16.30;99.90;;;;;;5031705;28;20060;-62
2023/10/11 01:50:16;;;;;;;25.25;13.52;;;16.10;99.90;;;;;;5024649;28;20049;-63
2023/10/11 01:52:43;;;;;;;24.13;13.25;;;16.10;99.90;;;;;;5011567;28;20050;-63
2023/10/11 01:55:17;;;;;;;23.48;13.55;;;16.20;99.90;;;;;;5010962;28;20053;-63
2023/10/11 01:57:48;;;;;;;23.80;13.13;;;16.10;99.90;;;;;;5027362;28;20042;-63
2023/10/11 02:00:24;;;;;;;21.80;12.75;;;16.10;99.90;;;;;;5011743;28;20054;-63
2023/10/11 02:02:56;;;;;;;23.13;13.35;;;16.20;99.90;;;;;;5011598;28;20046;-63
2023/10/11 02:05:23;;;;;;;21.85;13.32;;;16.00;99.90;;;;;;5011122;28;20053;-62
2023/10/11 02:07:50;;;;;;;22.90;13.48;;;16.00;99.90;;;;;;5011424;28;20056;-63
2023/10/11 02:10:27;;;;;;;20.02;12.73;;;16.00;99.90;;;;;;5011060;28;20077;-62
2023/10/11 02:12:57;;;;;;;19.92;12.63;;;15.90;99.90;;;;;;5011326;28;20054;-64
2023/10/11 02:15:29;;;;;;;22.70;12.15;;;15.90;99.90;;;;;;5030642;28;20462;-62
2023/10/11 02:17:56;;;;;;;22.15;13.40;;;16.00;99.90;;;;;;5031006;28;20119;-64
2023/10/11 02:20:23;;;;;;;24.38;12.88;;;16.00;99.90;;;;;;5023387;28;20120;-62
2023/10/11 02:22:55;;;;;;;22.40;13.35;;;15.90;99.90;;;;;;5011118;28;20061;-62
2023/10/11 02:25:24;;;;;;;22.63;12.15;;;15.90;99.90;;;;;;5010368;28;20054;-62
2023/10/11 02:27:54;;;;;;;22.75;13.38;;;15.90;99.90;;;;;;5010445;28;20060;-64
2023/10/11 02:30:24;;;;;;;20.30;12.68;;;15.80;99.90;;;;;;4996357;28;20050;-62
2023/10/11 02:32:53;;;;;;;25.63;13.90;;;15.80;99.90;;;;;;5030797;28;20057;-62
2023/10/11 02:35:20;;;;;;;22.50;12.93;;;15.80;99.90;;;;;;5029915;28;20394;-62
2023/10/11 02:37:46;;;;;;;22.73;12.88;;;15.80;99.90;;;;;;5030130;28;20057;-63
2023/10/11 02:40:16;;;;;;;21.70;12.38;;;15.80;99.90;;;;;;5024382;28;20052;-64
2023/10/11 02:42:49;;;;;;;18.23;11.45;;;15.90;99.90;;;;;;5010790;28;20057;-63
2023/10/11 02:45:19;;;;;;;20.92;12.02;;;15.90;99.90;;;;;;5010337;28;20050;-61
2023/10/11 02:47:46;;;;;;;20.83;12.43;;;15.80;99.90;;;;;;5010702;28;20112;-61
2023/10/11 02:50:12;;;;;;;20.83;12.90;;;15.80;99.90;;;;;;5009413;28;20073;-62
2023/10/11 02:52:39;;;;;;;20.40;11.90;;;15.80;99.90;;;;;;5010415;28;20054;-63
2023/10/11 02:55:16;;;;;;;21.08;12.00;;;15.80;99.90;;;;;;4992710;28;20042;-64
2023/10/11 02:57:43;;;;;;;20.90;11.80;;;15.80;99.90;;;;;;5009743;28;20435;-62
2023/10/11 03:00:22;;;;;;;23.30;12.27;;;15.80;99.90;;;;;;5010152;28;20088;-64
2023/10/11 03:02:54;;;;;;;23.80;11.75;;;15.70;99.90;;;;;;5010659;28;20141;-63
2023/10/11 03:05:28;;;;;;;21.65;11.90;;;15.70;99.90;;;;;;5009932;28;20419;-63
2023/10/11 03:07:55;;;;;;;19.35;12.23;;;15.70;99.90;;;;;;5010460;28;20050;-63
2023/10/11 03:10:22;;;;;;;24.67;11.88;;;15.80;99.90;;;;;;5009807;28;20069;-64
2023/10/11 03:12:52;;;;;;;23.27;11.90;;;15.60;99.90;;;;;;4992953;28;20470;-64
2023/10/11 03:15:19;;;;;;;20.95;12.63;;;15.70;99.90;;;;;;5010200;28;20145;-64
2023/10/11 03:17:48;;;;;;;21.73;11.70;;;15.70;99.90;;;;;;5010435;28;20176;-63
2023/10/11 03:20:30;;;;;;;21.52;12.15;;;15.60;99.90;;;;;;5010118;28;20053;-63
2023/10/11 03:22:59;;;;;;;22.25;12.27;;;15.70;99.90;;;;;;5010413;28;20120;-65
2023/10/11 03:25:29;;;;;;;21.27;11.32;;;15.60;99.90;;;;;;5009534;28;20049;-63
2023/10/11 03:27:57;;;;;;;21.05;11.73;;;15.60;99.90;;;;;;5010156;28;20057;-61
2023/10/11 03:30:24;;;;;;;20.90;11.32;;;15.60;99.90;;;;;;5009836;28;20068;-62
2023/10/11 03:32:51;;;;;;;19.58;11.43;;;15.70;99.90;;;;;;5008381;28;20455;-63
2023/10/11 03:35:19;;;;;;;19.25;12.00;;;15.70;99.90;;;;;;5009109;28;20065;-63
2023/10/11 03:37:58;;;;;;;25.23;11.50;;;15.70;99.90;;;;;;5008709;28;20137;-65
2023/10/11 03:40:28;;;;;;;22.48;11.82;;;15.80;99.90;;;;;;5008121;28;20099;-63
2023/10/11 03:43:01;;;;;;;23.98;11.13;;;15.70;99.90;;;;;;4990631;28;20070;-64
2023/10/11 03:45:27;;;;;;;25.30;11.77;;;15.90;99.90;;;;;;4989373;28;20046;-62
2023/10/11 03:47:55;;;;;;;22.40;12.27;;;15.80;99.90;;;;;;5009033;28;20046;-63
2023/10/11 03:50:32;;;;;;;19.85;11.98;;;15.90;99.90;;;;;;5008324;28;20058;-63
2023/10/11 03:53:06;;;;;;;21.20;11.68;;;16.00;99.90;;;;;;5013006;28;20057;-65
2023/10/11 03:55:33;;;;;;;19.75;11.07;;;16.00;99.90;;;;;;5011767;28;20148;-63
2023/10/11 03:57:59;;;;;;;24.20;12.00;;;16.00;99.90;;;;;;5012313;28;20105;-64
2023/10/11 04:00:28;;;;;;;22.23;11.35;;;16.00;99.90;;;;;;5012115;28;20062;-65
2023/10/11 04:02:58;;;;;;;21.20;11.80;;;16.00;99.90;;;;;;5013227;28;20049;-61
2023/10/11 04:05:35;;;;;;;22.05;11.23;;;16.10;99.90;;;;;;5012194;28;20046;-63
2023/10/11 04:08:05;;;;;;;;;;;16.00;99.90;;;;;;5013800;28;20042;-65
2023/10/11 04:10:49;;;;;;;22.35;10.80;;;16.00;99.90;;;;;;5012034;28;19933;-63
2023/10/11 04:13:18;;;;;;;21.45;10.63;;;16.10;99.90;;;;;;4995184;28;20136;-61
2023/10/11 04:15:52;;;;;;;26.42;11.48;;;16.10;99.90;;;;;;5012847;28;20049;-63
2023/10/11 04:18:32;;;;;;;21.10;11.48;;;16.10;99.90;;;;;;5013691;28;20046;-63
2023/10/11 04:23:45;;;;;;;23.00;12.57;;;16.20;99.90;;;;;;5012330;28;20046;-63
2023/10/11 04:28:58;;;;;;;19.77;11.15;;;16.20;99.90;;;;;;5012541;28;20054;-63
2023/10/11 04:31:42;;;;;;;20.33;11.48;;;16.20;99.90;;;;;;5012213;28;20103;-63
2023/10/11 04:34:14;;;;;;;23.30;12.10;;;16.30;99.90;;;;;;5012518;28;20507;-62
2023/10/11 04:36:43;;;;;;;26.67;12.48;;;16.30;99.90;;;;;;5012660;28;20038;-64
2023/10/11 04:39:18;;;;;;;23.48;12.05;;;16.30;99.90;;;;;;5011617;28;20046;-63
2023/10/11 04:41:51;;;;;;;22.40;11.88;;;16.20;99.90;;;;;;5011996;28;20074;-61
2023/10/11 04:44:18;;;;;;;26.33;13.27;;;16.30;99.90;;;;;;4994878;28;20041;-64
2023/10/11 04:46:57;;;;;;;21.80;12.20;;;16.40;99.90;;;;;;5012983;28;20042;-62
2023/10/11 04:49:25;;;;;;;22.80;12.10;;;16.30;99.90;;;;;;5012370;28;20529;-62
2023/10/11 04:51:56;;;;;;;28.63;14.07;;;16.40;99.90;;;;;;5012438;28;20057;-64
2023/10/11 04:54:35;;;;;;;27.30;13.10;;;16.30;99.90;;;;;;5012455;28;20057;-64
2023/10/11 04:57:07;;;;;;;26.30;14.18;;;16.30;99.90;;;;;;4995315;28;20359;-64
2023/10/11 05:02:08;;;;;;;21.55;11.90;;;16.40;99.90;;;;;;5011872;28;19925;-61
2023/10/11 05:04:41;;;;;;;24.17;13.32;;;16.40;99.90;;;;;;5010874;28;20366;-62
2023/10/11 05:07:09;;;;;;;26.95;12.73;;;16.30;99.90;;;;;;5012055;28;20049;-63
2023/10/11 05:09:40;;;;;;;27.52;13.43;;;16.30;99.90;;;;;;5011471;28;20046;-63
2023/10/11 05:12:19;;;;;;;27.42;14.07;;;16.40;99.90;;;;;;4992670;28;20484;-63
2023/10/11 05:17:16;;;;;;;28.75;14.57;;;16.40;99.90;;;;;;5011638;28;20394;-64
2023/10/11 05:51:45;;;;;;;25.13;14.82;;;16.00;99.90;;;;;;5010933;28;20053;-62
2023/10/11 05:54:11;;;;;;;28.10;15.15;;;16.10;99.90;;;;;;5011408;28;20042;-63
2023/10/11 05:56:41;;;;;;;28.48;14.40;;;16.10;99.90;;;;;;5011245;28;20050;-62
2023/10/11 05:59:12;;;;;;;27.23;14.88;;;16.00;99.90;;;;;;5010893;28;20138;-63
2023/10/11 06:01:39;;;;;;;27.83;14.60;;;16.10;99.90;;;;;;4996460;28;20054;-63
2023/10/11 06:04:07;;;;;;;29.38;14.40;;;16.00;99.90;;;;;;5002862;28;20046;-62
2023/10/11 06:06:45;;;;;;;28.63;14.20;;;16.00;99.90;;;;;;5011175;28;20058;-64
2023/10/11 06:09:17;;;;;;;;;;;16.00;99.90;;;;;;5010980;28;20363;-62
2023/10/11 06:11:50;;;;;;;29.15;14.40;;;16.00;99.90;;;;;;5006542;28;19921;-62
2023/10/11 06:14:20;;;;;;;26.85;15.07;;;16.00;99.90;;;;;;5011066;28;20068;-62
2023/10/11 06:17:16;;;;;;;28.10;15.55;;;16.00;99.90;;;;;;5011171;28;20299;-61
2023/10/11 06:19:43;;;;;;;32.70;15.07;;;16.00;99.90;;;;;;5010139;28;20038;-62
2023/10/11 06:22:13;;;;;;;27.42;15.40;;;16.00;99.90;;;;;;5011070;28;20046;-63
2023/10/11 06:24:40;;;;;;;27.63;14.85;;;16.00;99.90;;;;;;5008220;28;20314;-62
2023/10/11 06:29:54;;;;;;;27.08;14.90;;;16.00;99.90;;;;;;5007898;28;20050;-63
2023/10/11 06:32:22;;;;;;;32.03;15.43;;;16.10;99.90;;;;;;5012479;28;20045;-64
2023/10/11 06:34:50;;;;;;;28.88;15.63;;;16.10;99.90;;;;;;5012886;28;20057;-65
2023/10/11 06:37:19;;;;;;;30.42;15.68;;;16.10;99.90;;;;;;4995670;28;20065;-66
2023/10/11 06:40:07;;;;;;;27.58;14.85;;;16.10;99.90;;;;;;5012216;28;20054;-65
2023/10/11 06:42:33;;;;;;;30.83;16.08;;;16.20;99.90;;;;;;5012161;28;20058;-62
2023/10/11 06:45:05;;;;;;;30.65;15.90;;;16.10;99.90;;;;;;5009158;28;20066;-63
2023/10/11 06:47:33;;;;;;;;;;;16.20;99.90;;;;;;4994626;28;20080;-61
2023/10/11 06:50:10;;;;;;;24.45;14.68;;;16.10;99.90;;;;;;5020400;28;19976;-63
2023/10/11 06:52:44;;;;;;;31.25;15.82;;;16.20;99.90;;;;;;4996398;28;20046;-63
2023/10/11 06:57:39;;;;;;;25.80;14.38;;;16.20;99.90;;;;;;5021443;28;20057;-63
2023/10/11 07:00:23;;;;;;;30.00;15.52;;;16.30;99.90;;;;;;5028575;28;20108;-61
2023/10/11 07:05:56;;;;;;;26.92;16.42;;;16.30;99.90;;;;;;5011996;28;20390;-61
2023/10/11 07:08:32;;;;;;;32.08;16.48;;;16.30;99.90;;;;;;4993913;28;20065;-63
2023/10/11 07:11:18;;;;;;;27.58;15.48;;;16.40;99.90;;;;;;5013168;28;20061;-62
2023/10/11 07:14:00;;;;;;;32.47;15.93;;;16.30;99.90;;;;;;4994488;28;20050;-65
2023/10/11 07:16:28;;;;;;;31.67;15.80;;;16.40;99.90;;;;;;5012166;28;20180;-61
2023/10/11 07:18:56;;;;;;;31.35;16.05;;;16.40;99.90;;;;;;5011415;28;20470;-63
2023/10/11 07:21:48;;;;;;;28.70;15.48;;;16.40;99.90;;;;;;5011435;28;20057;-62
2023/10/11 07:24:33;;;;;;;33.53;16.38;;;16.60;99.90;;;;;;4994398;28;20136;-63
2023/10/11 07:27:08;;;;;;;31.67;16.33;;;16.60;99.90;;;;;;5011816;28;20053;-63
2023/10/11 07:29:42;;;;;;;33.67;17.08;;;16.60;99.90;;;;;;4994299;28;20100;-63
2023/10/11 07:32:09;;;;;;;37.88;16.90;;;16.70;99.90;;;;;;5011126;28;20045;-62
2023/10/11 07:34:37;;;;;;;36.72;16.85;;;16.70;99.90;;;;;;5012080;28;20049;-61
2023/10/11 07:37:05;;;;;;;36.78;18.40;;;16.80;99.90;;;;;;5011324;28;20100;-62
2023/10/11 07:39:35;;;;;;;33.28;17.48;;;16.70;99.90;;;;;;5011394;28;20057;-61
2023/10/11 07:42:06;;;;;;;39.40;17.58;;;16.80;99.90;;;;;;5011163;28;20489;-62
2023/10/11 07:44:38;;;;;;;33.13;18.55;;;16.90;99.90;;;;;;5011917;28;20050;-62
2023/10/11 07:47:14;;;;;;;34.00;17.20;;;16.90;99.90;;;;;;5011971;28;20056;-63
2023/10/11 07:49:42;;;;;;;37.30;18.25;;;16.90;99.90;;;;;;5008281;28;20145;-61
2023/10/11 07:52:09;;;;;;;35.15;18.05;;;16.80;99.90;;;;;;5030805;28;20140;-63
2023/10/11 07:54:39;;;;;;;35.15;18.85;;;16.90;99.90;;;;;;5032414;28;20045;-63
2023/10/11 07:57:14;;;;;;;39.28;18.50;;;17.00;99.90;;;;;;5032416;28;20049;-62
2023/10/11 07:59:42;;;;;;;35.13;17.85;;;17.00;99.90;;;;;;5032404;28;20060;-63
2023/10/11 08:02:26;;;;;;;40.35;19.55;;;17.00;99.90;;;;;;5031202;28;20053;-62
2023/10/11 08:04:59;;;;;;;36.22;17.23;;;17.00;99.90;;;;;;5029834;28;20041;-61
2023/10/11 08:07:26;;;;;;;34.70;18.20;;;17.00;99.90;;;;;;5031242;28;20107;-63
2023/10/11 08:09:52;;;;;;;37.47;18.88;;;17.10;99.90;;;;;;5031680;28;20050;-62
2023/10/11 08:12:23;;;;;;;35.60;18.75;;;17.00;99.90;;;;;;5011629;28;20057;-66
2023/10/11 08:14:53;;;;;;;38.35;18.98;;;17.10;99.90;;;;;;5031658;28;20085;-63
2023/10/11 08:17:20;;;;;;;38.53;18.23;;;17.10;99.90;;;;;;5031574;28;20049;-63
2023/10/11 08:19:48;;;;;;;32.45;18.45;;;17.00;99.90;;;;;;5031964;28;20061;-63
2023/10/11 08:22:16;;;;;;;35.75;17.52;;;17.10;99.90;;;;;;5025964;28;20054;-61
2023/10/11 08:24:49;;;;;;;35.55;18.40;;;17.10;99.90;;;;;;5031917;28;20049;-65
2023/10/11 08:27:27;;;;;;;33.95;18.23;;;17.00;99.90;;;;;;5029496;28;20052;-62
2023/10/11 08:30:05;;;;;;;33.63;17.17;;;17.00;99.90;;;;;;5012648;28;20050;-63
2023/10/11 08:32:42;;;;;;;31.23;17.20;;;17.10;99.90;;;;;;5020199;28;20057;-63
2023/10/11 08:35:10;;;;;;;39.35;18.13;;;17.00;99.90;;;;;;5031752;28;20111;-63
2023/10/11 08:37:37;;;;;;;33.47;19.88;;;17.00;99.90;;;;;;5034373;28;20343;-61
2023/10/11 08:40:20;;;;;;;34.88;16.98;;;17.00;99.90;;;;;;5015490;28;20546;-63
2023/10/11 08:42:51;;;;;;;35.35;18.65;;;17.00;99.90;;;;;;5034760;28;20056;-63
2023/10/11 08:45:48;;;;;;;34.20;17.50;;;17.10;99.90;;;;;;5034531;28;20115;-61
2023/10/11 08:48:15;;;;;;;32.88;18.52;;;17.10;99.90;;;;;;5010137;28;20415;-63
2023/10/11 08:50:51;;;;;;;39.03;18.95;;;17.00;99.90;;;;;;5033955;28;20508;-64
2023/10/11 08:53:22;;;;;;;32.30;17.90;;;17.00;99.90;;;;;;5034581;28;20041;-61
2023/10/11 08:55:59;;;;;;;29.98;17.75;;;17.10;99.90;;;;;;5034646;28;20056;-64
2023/10/11 08:58:29;;;;;;;;;;;17.10;99.90;;;;;;5034673;28;20469;-63
2023/10/11 09:00:58;;;;;;;31.85;17.80;;;17.20;99.90;;;;;;5033736;28;19931;-63
2023/10/11 09:03:26;;;;;;;36.58;17.10;;;17.20;99.90;;;;;;5034381;28;20377;-63
2023/10/11 09:05:58;;;;;;;36.03;18.50;;;17.20;99.90;;;;;;5034176;28;20053;-63
2023/10/11 09:08:36;;;;;;;33.38;17.38;;;17.20;99.90;;;;;;5034140;28;20111;-62
2023/10/11 09:11:28;;;;;;;35.80;17.73;;;17.20;99.90;;;;;;5015122;28;20458;-63
2023/10/11 09:14:24;;;;;;;36.20;17.40;;;17.10;99.90;;;;;;5033949;28;20051;-64
2023/10/11 09:16:57;;;;;;;31.88;17.65;;;17.20;99.90;;;;;;5000131;28;20068;-61
2023/10/11 09:19:25;;;;;;;32.65;17.25;;;17.10;99.90;;;;;;5030977;28;20133;-66
2023/10/11 09:22:05;;;;;;;30.08;16.70;;;17.20;99.90;;;;;;5030630;28;20065;-62
2023/10/11 09:24:41;;;;;;;29.70;15.93;;;17.20;99.90;;;;;;5032934;28;20168;-62
2023/10/11 09:27:30;;;;;;;30.17;15.77;;;17.40;99.90;;;;;;5032545;28;20543;-62
2023/10/11 09:30:19;;;;;;;29.42;16.38;;;17.40;99.90;;;;;;5024643;28;20374;-66
2023/10/11 09:32:49;;;;;;;31.13;15.50;;;17.40;99.90;;;;;;5015933;28;20045;-66
2023/10/11 09:35:29;;;;;;;26.40;14.13;;;17.40;99.90;;;;;;5033127;28;20049;-62
2023/10/11 09:37:57;;;;;;;21.20;12.55;;;17.40;99.90;;;;;;5030291;28;20060;-63
2023/10/11 09:40:35;;;;;;;25.38;10.60;;;17.60;99.90;;;;;;4999865;28;20068;-61
2023/10/11 09:43:04;;;;;;;27.17;11.90;;;17.50;99.90;;;;;;5033228;28;20106;-64
2023/10/11 09:45:41;;;;;;;17.92;10.07;;;17.60;99.90;;;;;;5033267;28;20064;-63
2023/10/11 09:48:17;;;;;;;17.50;8.60;;;17.70;99.90;;;;;;5032323;28;20332;-63
2023/10/11 09:50:44;;;;;;;15.52;8.88;;;17.80;99.90;;;;;;5032780;28;20467;-64
2023/10/11 09:53:14;;;;;;;17.27;8.45;;;17.80;99.90;;;;;;5014161;28;20454;-62
2023/10/11 09:56:03;;;;;;;21.27;9.38;;;17.80;99.90;;;;;;5035275;28;20057;-62
2023/10/11 09:58:41;;;;;;;17.20;7.70;;;17.70;99.90;;;;;;5036206;28;20100;-62
2023/10/11 10:01:18;;;;;;;;;;;17.80;99.90;;;;;;5032400;28;20045;-63
2023/10/11 10:03:52;;;;;;;12.13;7.38;;;17.80;99.90;;;;;;5077666;23;20021;-61
2023/10/11 10:06:19;;;;;;;15.77;8.05;;;17.90;99.90;;;;;;4960701;28;20066;-60
2023/10/11 10:09:23;;;;;;;11.85;7.40;;;18.00;99.90;;;;;;4960508;28;20505;-61
2023/10/11 10:12:11;;;;;;;15.55;7.57;;;18.20;99.90;;;;;;4944696;28;20418;-61
2023/10/11 10:14:39;;;;;;;14.30;7.15;;;18.40;99.90;;;;;;4977454;28;20047;-62
2023/10/11 10:17:15;;;;;;;11.38;5.75;;;18.40;99.90;;;;;;4960531;28;20053;-61
2023/10/11 10:19:47;;;;;;;14.52;5.88;;;18.60;99.90;;;;;;4960396;28;20058;-61
2023/10/11 10:22:17;;;;;;;;;;;18.60;99.90;;;;;;4976619;28;20054;-61
2023/10/11 10:24:44;;;;;;;12.68;6.10;;;18.70;99.90;;;;;;4960271;28;19965;-61
2023/10/11 10:27:33;;;;;;;10.88;5.45;;;18.90;99.90;;;;;;4959776;28;20134;-61
2023/10/11 10:30:02;;;;;;;13.82;6.32;;;18.90;99.90;;;;;;4977640;28;20130;-63
2023/10/11 10:32:30;;;;;;;9.35;5.40;;;19.00;99.90;;;;;;4960160;28;20059;-61
2023/10/11 10:35:18;;;;;;;11.55;6.47;;;18.90;99.90;;;;;;4963733;28;20050;-60
2023/10/11 10:37:51;;;;;;;8.65;4.72;;;18.90;99.90;;;;;;4996235;28;20057;-61
2023/10/11 10:40:25;;;;;;;8.38;5.90;;;18.80;99.90;;;;;;4954691;28;20360;-61
2023/10/11 10:43:08;;;;;;;11.70;5.35;;;19.00;99.90;;;;;;4979293;28;20058;-62
2023/10/11 10:45:35;;;;;;;11.15;5.10;;;19.10;99.90;;;;;;4961202;28;20057;-62
2023/10/11 10:48:24;;;;;;;11.70;5.57;;;19.10;99.90;;;;;;4962669;28;20378;-62
2023/10/11 10:51:06;;;;;;;7.88;5.22;;;19.30;99.90;;;;;;4962616;28;20061;-62
2023/10/11 10:53:50;;;;;;;11.88;4.70;;;19.40;99.90;;;;;;4962884;28;20055;-62
2023/10/11 10:56:20;;;;;;;10.80;4.78;;;19.50;99.90;;;;;;4958359;28;20043;-62
2023/10/11 10:58:47;;;;;;;10.35;5.38;;;19.60;99.90;;;;;;4959238;28;20086;-62
2023/10/11 11:01:24;;;;;;;12.38;5.63;;;19.50;99.90;;;;;;4959267;28;20390;-62
2023/10/11 11:03:59;;;;;;;15.90;5.32;;;19.70;99.90;;;;;;4974947;28;20399;-63
2023/10/11 11:06:55;;;;;;;11.48;4.57;;;19.90;99.90;;;;;;4958839;28;20062;-62
2023/10/11 11:09:28;;;;;;;10.50;4.65;;;20.00;99.90;;;;;;4959575;28;20047;-62
2023/10/11 11:12:09;;;;;;;9.77;5.20;;;19.90;99.90;;;;;;4959513;28;20356;-63
2023/10/11 11:14:35;;;;;;;9.35;5.03;;;19.80;99.90;;;;;;4959652;28;20047;-63
2023/10/11 11:17:09;;;;;;;11.02;5.28;;;19.80;99.90;;;;;;4943139;28;20058;-63
2023/10/11 11:19:36;;;;;;;11.15;5.25;;;20.00;99.90;;;;;;4975987;28;20055;-64
2023/10/11 11:22:11;;;;;;;9.15;5.15;;;20.00;99.90;;;;;;4976349;28;20092;-62
2023/10/11 11:24:41;;;;;;;8.75;5.13;;;19.90;99.90;;;;;;4958951;28;20051;-61
2023/10/11 11:27:18;;;;;;;9.35;5.15;;;19.90;99.90;;;;;;4958618;28;20043;-63
2023/10/11 11:29:48;;;;;;;10.45;4.88;;;19.80;99.90;;;;;;4958981;28;20345;-62
2023/10/11 11:32:16;;;;;;;8.50;5.22;;;19.80;99.90;;;;;;4959116;28;20054;-62
2023/10/11 11:35:09;;;;;;;9.63;4.53;;;19.80;99.90;;;;;;4958998;28;20443;-62
2023/10/11 11:38:01;;;;;;;12.80;5.45;;;19.80;99.90;;;;;;4959002;28;20059;-62
2023/10/11 11:40:30;;;;;;;8.68;4.57;;;19.90;99.90;;;;;;4959018;28;20050;-62
2023/10/11 11:43:03;;;;;;;9.13;4.95;;;20.00;99.90;;;;;;4958700;28;20055;-62
2023/10/11 11:45:35;;;;;;;8.80;4.45;;;20.00;99.90;;;;;;4958579;28;20117;-62
2023/10/11 11:48:05;;;;;;;10.50;4.95;;;20.00;99.90;;;;;;4958636;28;20058;-63
2023/10/11 11:50:36;;;;;;;7.57;4.15;;;20.10;99.90;;;;;;4958869;28;20141;-62
2023/10/11 11:53:04;;;;;;;8.25;4.45;;;20.10;99.90;;;;;;4942817;28;20113;-63
2023/10/11 11:55:35;;;;;;;9.40;5.30;;;20.10;99.90;;;;;;4942886;28;20047;-62
2023/10/11 11:58:10;;;;;;;10.05;4.82;;;20.20;99.90;;;;;;4958542;28;20055;-63
2023/10/11 12:00:40;;;;;;;10.93;5.07;;;20.30;99.90;;;;;;4958860;28;20055;-62
2023/10/11 12:03:08;;;;;;;9.77;4.43;;;20.30;99.90;;;;;;4958303;28;20066;-62
2023/10/11 12:05:37;;;;;;;9.38;4.38;;;20.30;99.90;;;;;;4959168;28;20142;-65
2023/10/11 12:08:09;;;;;;;8.70;5.03;;;20.40;99.90;;;;;;4958520;28;20363;-62
2023/10/11 12:10:36;;;;;;;11.02;4.75;;;20.40;99.90;;;;;;4960696;28;20043;-63
2023/10/11 12:13:08;;;;;;;9.02;4.63;;;20.40;99.90;;;;;;4962026;28;20058;-62
2023/10/11 12:15:35;;;;;;;9.40;4.80;;;20.50;99.90;;;;;;4962456;28;20057;-63
2023/10/11 12:18:05;;;;;;;9.77;4.20;;;20.40;99.90;;;;;;4962531;28;20062;-62
2023/10/11 12:20:34;;;;;;;10.05;3.95;;;20.50;99.90;;;;;;4962109;28;20055;-63
2023/10/11 12:23:11;;;;;;;13.00;4.60;;;20.50;99.90;;;;;;4962481;28;20050;-62
2023/10/11 12:25:44;;;;;;;9.07;4.00;;;20.50;99.90;;;;;;4962075;28;20047;-63
2023/10/11 12:28:13;;;;;;;10.45;4.03;;;20.50;99.90;;;;;;4962491;28;20054;-64
2023/10/11 12:30:44;;;;;;;6.43;3.67;;;20.50;99.90;;;;;;4961783;28;20493;-62
2023/10/11 12:33:10;;;;;;;9.55;3.95;;;20.60;99.90;;;;;;4978946;28;20065;-63
2023/10/11 12:35:41;;;;;;;8.93;4.28;;;20.60;99.90;;;;;;4962180;28;20057;-63
2023/10/11 12:38:12;;;;;;;6.90;3.70;;;20.50;99.90;;;;;;4962147;28;20082;-63
2023/10/11 12:40:41;;;;;;;7.18;4.40;;;20.60;99.90;;;;;;4962053;28;20355;-62
2023/10/11 12:43:07;;;;;;;7.43;3.58;;;20.50;99.90;;;;;;4961968;28;20490;-62
2023/10/11 12:45:35;;;;;;;6.63;4.18;;;20.50;99.90;;;;;;4961620;28;20463;-63
2023/10/11 12:48:06;;;;;;;7.15;3.78;;;20.50;99.90;;;;;;4979149;28;20061;-63
2023/10/11 12:50:36;;;;;;;7.72;4.00;;;20.60;99.90;;;;;;4961968;28;20434;-62
2023/10/11 12:53:13;;;;;;;8.65;3.80;;;20.50;99.90;;;;;;4961923;28;20051;-63
2023/10/11 12:55:41;;;;;;;6.68;3.70;;;20.60;99.90;;;;;;4961803;28;20051;-62
2023/10/11 12:58:15;;;;;;;12.10;4.90;;;20.60;99.90;;;;;;4945550;28;20052;-63
2023/10/11 13:00:51;;;;;;;10.38;3.83;;;20.70;99.90;;;;;;4961386;28;20109;-63
2023/10/11 13:03:20;;;;;;;7.63;4.00;;;20.80;99.90;;;;;;4961867;28;20375;-62
2023/10/11 13:05:46;;;;;;;7.50;3.30;;;20.80;99.90;;;;;;4978655;28;20050;-62
2023/10/11 13:08:14;;;;;;;6.35;3.15;;;20.80;99.90;;;;;;4961752;28;20050;-63
2023/10/11 13:10:45;;;;;;;8.50;3.35;;;20.80;99.90;;;;;;4961570;28;20047;-63
2023/10/11 13:13:15;;;;;;;5.72;3.33;;;20.80;99.90;;;;;;4978701;28;20467;-62
2023/10/11 13:15:55;;;;;;;6.65;3.40;;;20.80;99.90;;;;;;4961472;28;20051;-62
2023/10/11 13:18:31;;;;;;;5.63;3.35;;;20.90;99.90;;;;;;4945600;28;20514;-62
2023/10/11 13:20:59;;;;;;;11.57;3.17;;;20.80;99.90;;;;;;4961015;28;20051;-62
2023/10/11 13:23:29;;;;;;;9.07;3.08;;;20.80;99.90;;;;;;4974422;28;20057;-63
2023/10/11 13:26:00;;;;;;;6.93;3.72;;;20.80;99.90;;;;;;4961218;28;20058;-62
2023/10/11 13:28:28;;;;;;;9.82;4.63;;;20.80;99.90;;;;;;4961741;28;20456;-62
2023/10/11 13:30:55;;;;;;;9.55;4.95;;;20.70;99.90;;;;;;4945261;28;20042;-62
2023/10/11 13:33:22;;;;;;;11.23;5.60;;;20.60;99.90;;;;;;4978296;28;20121;-62
2023/10/11 13:35:49;;;;;;;11.38;6.38;;;20.60;99.90;;;;;;4960629;28;20061;-64
2023/10/11 13:38:19;;;;;;;13.63;7.15;;;20.50;99.90;;;;;;4962495;28;20047;-63
2023/10/11 13:40:47;;;;;;;12.23;6.53;;;20.50;99.90;;;;;;4974998;28;20411;-63
2023/10/11 13:43:13;;;;;;;14.60;6.50;;;20.50;99.90;;;;;;4961247;28;20042;-63
2023/10/11 13:45:45;;;;;;;13.00;6.53;;;20.50;99.90;;;;;;4960754;28;20046;-64
2023/10/11 13:48:13;;;;;;;10.15;5.95;;;20.40;99.90;;;;;;4961415;28;20054;-62
2023/10/11 13:50:49;;;;;;;12.35;6.80;;;20.50;99.90;;;;;;4945800;28;20338;-62
2023/10/11 13:53:17;;;;;;;15.48;6.53;;;20.40;99.90;;;;;;4960800;28;20071;-61